createdAt,value
2023-02-11T00:01:35.258Z,-0.49
2023-02-11T00:04:03.822Z,-0.59
2023-02-11T00:06:33.464Z,-0.70
2023-02-11T00:09:01.293Z,-0.73
2023-02-11T00:11:30.811Z,-0.71
2023-02-11T00:14:04.287Z,-0.69
2023-02-11T00:16:33.189Z,-0.80
2023-02-11T00:19:01.827Z,-0.84
2023-02-11T00:21:29.877Z,-0.75
2023-02-11T00:23:59.997Z,-0.78
2023-02-11T00:26:32.634Z,-0.78
2023-02-11T00:29:01.076Z,-0.79
2023-02-11T00:31:28.856Z,-0.90
2023-02-11T00:33:57.459Z,-1.03
2023-02-11T00:36:26.887Z,-1.17
2023-02-11T00:38:56.584Z,-1.21
2023-02-11T00:41:24.595Z,-1.25
2023-02-11T00:43:53.222Z,-1.32
2023-02-11T00:46:22.652Z,-1.26
2023-02-11T00:48:52.057Z,-1.28
2023-02-11T00:51:19.493Z,-1.28
2023-02-11T00:53:47.700Z,-1.27
2023-02-11T00:56:17.397Z,-1.24
2023-02-11T00:58:44.857Z,-1.28
2023-02-11T01:01:14.528Z,-1.26
2023-02-11T01:03:42.656Z,-1.22
2023-02-11T01:06:11.042Z,-1.21
2023-02-11T01:08:39.505Z,-1.20
2023-02-11T01:11:12.365Z,-1.12
2023-02-11T01:13:39.899Z,-1.08
2023-02-11T01:16:09.603Z,-1.03
2023-02-11T01:18:37.947Z,-1.03
2023-02-11T01:21:07.977Z,-0.94
2023-02-11T01:23:36.168Z,-1.01
2023-02-11T01:26:05.997Z,-1.00
2023-02-11T01:28:34.208Z,-0.89
2023-02-11T01:31:03.079Z,-1.06
2023-02-11T01:33:30.940Z,-1.01
2023-02-11T01:36:04.528Z,-1.14
2023-02-11T01:38:33.273Z,-0.87
2023-02-11T01:41:07.548Z,-1.11
2023-02-11T01:43:38.563Z,-1.10
2023-02-11T01:46:06.730Z,-1.19
2023-02-11T01:48:39.145Z,-1.16
2023-02-11T01:51:22.487Z,-1.28
2023-02-11T01:54:08.909Z,-1.26
2023-02-11T01:57:01.111Z,-0.85
2023-02-11T01:59:33.602Z,-0.76
2023-02-11T02:02:06.590Z,-0.74
2023-02-11T02:04:39.310Z,-0.78
2023-02-11T02:07:12.441Z,-0.83
2023-02-11T02:09:44.741Z,-0.81
2023-02-11T02:12:12.203Z,-0.85
2023-02-11T02:14:40.995Z,-1.04
2023-02-11T02:17:18.041Z,-0.86
2023-02-11T02:20:11.475Z,-0.82
2023-02-11T02:22:48.012Z,-0.88
2023-02-11T02:25:42.810Z,-0.85
2023-02-11T02:28:33.038Z,-1.13
2023-02-11T02:31:22.014Z,-0.94
2023-02-11T02:34:07.024Z,-0.92
2023-02-11T02:36:48.764Z,-0.93
2023-02-11T02:39:23.115Z,-0.95
2023-02-11T02:41:53.176Z,-0.90
2023-02-11T02:44:23.046Z,-0.91
2023-02-11T02:46:50.487Z,-0.80
2023-02-11T02:49:23.642Z,-0.82
2023-02-11T02:52:12.067Z,-0.83
2023-02-11T02:55:00.566Z,-0.79
2023-02-11T02:57:46.728Z,-0.75
2023-02-11T03:00:33.224Z,-0.78
2023-02-11T03:03:33.079Z,-0.84
2023-02-11T03:06:13.453Z,-0.81
2023-02-11T03:08:55.369Z,-0.82
2023-02-11T03:11:24.703Z,-0.92
2023-02-11T03:13:54.980Z,-0.95
2023-02-11T03:16:28.614Z,-0.94
2023-02-11T03:19:11.910Z,-0.92
2023-02-11T03:21:42.446Z,-0.92
2023-02-11T03:24:19.072Z,-0.93
2023-02-11T03:26:57.258Z,-0.94
2023-02-11T03:29:37.051Z,-0.95
2023-02-11T03:32:41.678Z,-0.89
2023-02-11T03:35:48.096Z,-0.93
2023-02-11T03:38:23.945Z,-0.86
2023-02-11T03:40:56.118Z,-0.89
2023-02-11T03:43:31.231Z,-0.97
2023-02-11T03:46:00.473Z,-0.78
2023-02-11T03:48:52.082Z,-0.82
2023-02-11T03:51:24.217Z,-0.94
2023-02-11T03:53:55.652Z,-1.01
2023-02-11T03:56:29.336Z,-1.06
2023-02-11T03:58:56.497Z,-1.11
2023-02-11T04:01:24.039Z,-1.05
2023-02-11T04:03:51.323Z,-1.00
2023-02-11T04:06:18.902Z,-1.14
2023-02-11T04:08:46.269Z,-1.20
2023-02-11T04:11:13.906Z,-1.26
2023-02-11T04:13:41.211Z,-1.03
2023-02-11T04:16:08.780Z,-0.92
2023-02-11T04:18:36.141Z,-0.98
2023-02-11T04:21:04.618Z,-0.95
2023-02-11T04:23:32.138Z,-0.91
2023-02-11T04:25:59.668Z,-1.16
2023-02-11T04:28:29.652Z,-0.95
2023-02-11T04:30:57.045Z,-0.86
2023-02-11T04:33:24.702Z,-1.10
2023-02-11T04:35:52.319Z,-1.25
2023-02-11T04:38:20.927Z,-1.38
2023-02-11T04:40:48.286Z,-1.35
2023-02-11T04:43:15.755Z,-1.07
2023-02-11T04:45:43.340Z,-1.10
2023-02-11T04:48:11.725Z,-1.05
2023-02-11T04:50:40.297Z,-1.43
2023-02-11T04:53:07.721Z,-1.46
2023-02-11T04:55:35.181Z,-1.18
2023-02-11T04:58:03.527Z,-1.23
2023-02-11T05:00:31.104Z,-1.26
2023-02-11T05:02:58.570Z,-1.36
2023-02-11T05:05:27.002Z,-1.45
2023-02-11T05:07:56.432Z,-1.45
2023-02-11T05:10:23.912Z,-1.44
2023-02-11T05:12:52.593Z,-1.41
2023-02-11T05:15:21.409Z,-1.37
2023-02-11T05:17:49.906Z,-1.29
2023-02-11T05:20:17.022Z,-1.34
2023-02-11T05:22:45.388Z,-1.30
2023-02-11T05:25:13.133Z,-1.15
2023-02-11T05:27:40.183Z,-1.06
2023-02-11T05:30:08.213Z,-1.03
2023-02-11T05:32:35.820Z,-1.04
2023-02-11T05:35:03.141Z,-0.95
2023-02-11T05:37:30.604Z,-0.77
2023-02-11T05:39:58.036Z,-0.78
2023-02-11T05:42:26.526Z,-0.60
2023-02-11T05:44:54.014Z,-0.64
2023-02-11T05:47:22.514Z,-0.63
2023-02-11T05:49:50.108Z,-0.64
2023-02-11T05:52:20.072Z,-0.70
2023-02-11T05:54:47.469Z,-0.76
2023-02-11T05:57:16.486Z,-0.85
2023-02-11T05:59:45.810Z,-0.90
2023-02-11T06:02:13.617Z,-0.91
2023-02-11T06:04:42.920Z,-0.95
2023-02-11T06:07:11.552Z,-0.88
2023-02-11T06:09:44.883Z,-0.94
2023-02-11T06:12:11.675Z,-1.00
2023-02-11T06:14:45.110Z,-0.96
2023-02-11T06:17:13.992Z,-0.80
2023-02-11T06:19:42.554Z,-0.85
2023-02-11T06:22:09.957Z,-0.88
2023-02-11T06:24:58.952Z,-0.84
2023-02-11T06:27:26.513Z,-0.60
2023-02-11T06:29:53.864Z,-0.51
2023-02-11T06:32:42.231Z,-0.34
2023-02-11T06:35:11.891Z,-0.30
2023-02-11T06:37:41.522Z,-0.13
2023-02-11T06:40:09.169Z,-0.20
2023-02-11T06:42:39.322Z,-0.18
2023-02-11T06:45:13.569Z,-0.17
2023-02-11T06:47:42.936Z,-0.14
2023-02-11T06:50:13.650Z,-0.12
2023-02-11T06:52:41.560Z,-0.08
2023-02-11T06:55:15.275Z,-0.04
2023-02-11T06:57:42.408Z,0.00
2023-02-11T07:00:11.426Z,-0.14
2023-02-11T07:02:38.947Z,-0.06
2023-02-11T07:05:08.054Z,-0.03
2023-02-11T07:07:35.573Z,0.15
2023-02-11T07:10:04.455Z,0.19
2023-02-11T07:12:32.299Z,0.16
2023-02-11T07:14:59.361Z,0.22
2023-02-11T07:17:27.698Z,0.25
2023-02-11T07:19:54.720Z,0.35
2023-02-11T07:22:23.150Z,0.33
2023-02-11T07:24:50.944Z,0.35
2023-02-11T07:27:19.200Z,0.30
2023-02-11T07:29:48.952Z,0.45
2023-02-11T07:32:16.609Z,0.57
2023-02-11T07:34:43.956Z,0.66
2023-02-11T07:37:11.377Z,0.67
2023-02-11T07:39:39.113Z,0.73
2023-02-11T07:42:06.853Z,0.64
2023-02-11T07:44:34.852Z,0.62
2023-02-11T07:47:08.071Z,0.65
2023-02-11T07:49:39.404Z,0.90
2023-02-11T07:52:06.847Z,0.88
2023-02-11T07:54:34.352Z,0.93
2023-02-11T07:57:02.849Z,1.01
2023-02-11T07:59:30.369Z,1.07
2023-02-11T08:01:57.894Z,1.15
2023-02-11T08:04:25.213Z,1.20
2023-02-11T08:06:56.555Z,1.36
2023-02-11T08:09:26.295Z,1.49
2023-02-11T08:11:53.652Z,1.61
2023-02-11T08:14:21.354Z,1.83
2023-02-11T08:16:48.842Z,1.91
2023-02-11T08:19:17.540Z,2.05
2023-02-11T08:21:45.446Z,2.18
2023-02-11T08:24:13.618Z,2.19
2023-02-11T08:26:41.328Z,2.27
2023-02-11T08:29:13.897Z,2.40
2023-02-11T08:31:45.640Z,2.42
2023-02-11T08:34:14.720Z,2.51
2023-02-11T08:36:42.845Z,2.47
2023-02-11T08:39:19.605Z,2.62
2023-02-11T08:41:51.111Z,2.74
2023-02-11T08:44:20.065Z,2.83
2023-02-11T08:46:48.129Z,2.84
2023-02-11T08:49:15.912Z,2.93
2023-02-11T08:51:43.792Z,2.95
2023-02-11T08:54:11.395Z,3.05
2023-02-11T08:56:39.291Z,2.94
2023-02-11T08:59:07.889Z,3.15
2023-02-11T09:01:38.374Z,3.15
2023-02-11T09:04:05.808Z,3.18
2023-02-11T09:06:33.212Z,3.22
2023-02-11T09:09:00.970Z,3.24
2023-02-11T09:11:34.722Z,3.28
2023-02-11T09:14:04.460Z,3.30
2023-02-11T09:16:35.536Z,3.31
2023-02-11T09:19:06.009Z,3.36
2023-02-11T09:21:33.478Z,3.46
2023-02-11T09:24:01.099Z,3.44
2023-02-11T09:26:34.321Z,3.47
2023-02-11T09:29:03.649Z,3.62
2023-02-11T09:31:33.601Z,3.74
2023-02-11T09:34:04.810Z,3.72
2023-02-11T09:36:37.733Z,3.82
2023-02-11T09:39:09.651Z,4.08
2023-02-11T09:42:19.106Z,4.14
2023-02-11T09:44:48.047Z,4.30
2023-02-11T09:47:35.794Z,4.31
2023-02-11T09:50:39.007Z,4.16
2023-02-11T09:53:11.111Z,4.15
2023-02-11T09:55:47.078Z,4.06
2023-02-11T09:58:25.427Z,4.08
2023-02-11T10:01:14.394Z,4.09
2023-02-11T10:04:01.892Z,4.17
2023-02-11T10:06:50.996Z,4.27
2023-02-11T10:09:45.938Z,4.30
2023-02-11T10:12:43.961Z,4.32
2023-02-11T10:15:21.312Z,4.42
2023-02-11T10:18:19.170Z,4.39
2023-02-11T10:21:18.203Z,4.35
2023-02-11T10:23:56.340Z,4.29
2023-02-11T10:26:27.869Z,4.36
2023-02-11T10:29:01.633Z,4.44
2023-02-11T10:31:42.929Z,4.53
2023-02-11T10:34:16.251Z,4.47
2023-02-11T10:36:45.397Z,4.46
2023-02-11T10:39:24.527Z,4.45
2023-02-11T10:41:57.092Z,4.43
2023-02-11T10:44:50.020Z,4.39
2023-02-11T10:47:24.373Z,4.48
2023-02-11T10:49:53.832Z,4.50
2023-02-11T10:52:30.867Z,4.50
2023-02-11T10:55:05.268Z,4.57
2023-02-11T10:57:40.916Z,4.64
2023-02-11T11:00:31.139Z,4.71
2023-02-11T11:03:02.389Z,4.65
2023-02-11T11:05:33.622Z,4.61
2023-02-11T11:08:09.307Z,4.59
2023-02-11T11:10:45.335Z,4.56
2023-02-11T11:13:35.521Z,4.64
2023-02-11T11:16:14.834Z,4.62
2023-02-11T11:18:45.377Z,4.60
2023-02-11T11:21:43.468Z,4.74
2023-02-11T11:24:19.183Z,4.75
2023-02-11T11:26:52.946Z,4.82
2023-02-11T11:29:45.464Z,4.85
2023-02-11T11:32:28.100Z,4.91
2023-02-11T11:34:59.866Z,4.82
2023-02-11T11:37:42.170Z,4.97
2023-02-11T11:40:31.941Z,4.95
2023-02-11T11:43:15.428Z,4.84
2023-02-11T11:45:58.240Z,4.71
2023-02-11T11:48:38.716Z,4.72
2023-02-11T11:51:10.579Z,4.72
2023-02-11T11:54:12.624Z,4.65
2023-02-11T11:57:00.107Z,4.62
2023-02-11T11:59:30.894Z,4.68
2023-02-11T12:02:08.677Z,4.68
2023-02-11T12:04:55.661Z,4.68
2023-02-11T12:07:50.702Z,4.56
2023-02-11T12:10:21.667Z,4.57
2023-02-11T12:13:08.067Z,4.67
2023-02-11T12:16:10.428Z,4.71
2023-02-11T12:19:05.705Z,4.54
2023-02-11T12:21:54.458Z,4.59
2023-02-11T12:24:44.754Z,4.58
2023-02-11T12:27:24.445Z,4.51
2023-02-11T12:30:17.930Z,4.39
2023-02-11T12:32:53.705Z,4.30
2023-02-11T12:35:30.422Z,4.24
2023-02-11T12:38:16.750Z,4.14
2023-02-11T12:41:11.031Z,4.16
2023-02-11T12:43:44.145Z,4.17
2023-02-11T12:46:35.222Z,4.19
2023-02-11T12:49:26.261Z,4.27
2023-02-11T12:52:29.501Z,4.21
2023-02-11T12:55:04.704Z,4.18
2023-02-11T12:57:36.114Z,4.15
2023-02-11T13:00:13.437Z,4.14
2023-02-11T13:02:59.677Z,4.17
2023-02-11T13:05:34.348Z,4.16
2023-02-11T13:08:26.128Z,4.29
2023-02-11T13:11:00.885Z,4.37
2023-02-11T13:13:35.033Z,4.33
2023-02-11T13:16:36.961Z,4.42
2023-02-11T13:19:13.898Z,4.43
2023-02-11T13:22:06.279Z,4.56
2023-02-11T13:25:04.343Z,4.51
2023-02-11T13:27:37.974Z,4.55
2023-02-11T13:30:14.999Z,4.52
2023-02-11T13:32:58.467Z,4.48
2023-02-11T13:35:35.067Z,4.51
2023-02-11T13:38:19.354Z,4.51
2023-02-11T13:41:02.828Z,4.44
2023-02-11T13:43:34.894Z,4.52
2023-02-11T13:46:07.611Z,4.45
2023-02-11T13:48:46.590Z,4.41
2023-02-11T13:51:18.183Z,4.50
2023-02-11T13:53:54.553Z,4.51
2023-02-11T13:56:38.574Z,4.48
2023-02-11T13:59:27.397Z,4.46
2023-02-11T14:02:19.559Z,4.60
2023-02-11T14:05:24.065Z,4.54
2023-02-11T14:08:29.049Z,4.47
2023-02-11T14:11:11.361Z,4.54
2023-02-11T14:13:49.030Z,4.50
2023-02-11T14:16:36.449Z,4.51
2023-02-11T14:19:06.669Z,4.52
2023-02-11T14:21:38.836Z,4.48
2023-02-11T14:24:07.308Z,4.44
2023-02-11T14:26:55.712Z,4.31
2023-02-11T14:29:53.010Z,4.29
2023-02-11T14:32:39.859Z,4.24
2023-02-11T14:35:31.867Z,4.25
2023-02-11T14:38:29.070Z,4.24
2023-02-11T14:41:06.638Z,4.28
2023-02-11T14:43:49.478Z,4.26
2023-02-11T14:46:21.427Z,4.26
2023-02-11T14:48:53.358Z,4.25
2023-02-11T14:51:28.972Z,4.13
2023-02-11T14:54:20.355Z,4.15
2023-02-11T14:57:26.260Z,4.09
2023-02-11T14:59:59.663Z,3.98
2023-02-11T15:02:33.830Z,3.96
2023-02-11T15:05:20.791Z,3.89
2023-02-11T15:07:52.420Z,3.89
2023-02-11T15:10:35.548Z,3.82
2023-02-11T15:13:05.735Z,3.78
2023-02-11T15:15:37.849Z,3.65
2023-02-11T15:18:06.463Z,3.52
2023-02-11T15:20:35.181Z,3.48
2023-02-11T15:23:08.407Z,3.41
2023-02-11T15:25:44.787Z,3.29
2023-02-11T15:28:26.250Z,3.16
2023-02-11T15:31:03.865Z,3.16
2023-02-11T15:33:33.589Z,3.07
2023-02-11T15:36:03.250Z,3.07
2023-02-11T15:38:37.329Z,2.96
2023-02-11T15:41:08.387Z,2.94
2023-02-11T15:43:51.517Z,2.84
2023-02-11T15:46:36.096Z,2.78
2023-02-11T15:49:06.550Z,2.70
2023-02-11T15:51:37.247Z,2.65
2023-02-11T15:54:17.493Z,2.64
2023-02-11T15:56:49.469Z,2.68
2023-02-11T15:59:38.490Z,2.65
2023-02-11T16:02:19.865Z,2.66
2023-02-11T16:05:03.316Z,2.70
2023-02-11T16:07:46.817Z,2.68
2023-02-11T16:10:31.714Z,2.72
2023-02-11T16:13:09.621Z,2.76
2023-02-11T16:15:59.285Z,2.84
2023-02-11T16:18:42.423Z,2.74
2023-02-11T16:21:19.117Z,2.81
2023-02-11T16:23:55.842Z,2.81
2023-02-11T16:26:34.008Z,2.81
2023-02-11T16:29:16.306Z,2.81
2023-02-11T16:31:50.471Z,2.85
2023-02-11T16:34:23.206Z,2.91
2023-02-11T16:36:53.947Z,2.85
2023-02-11T16:39:23.687Z,2.77
2023-02-11T16:41:53.084Z,2.81
2023-02-11T16:44:21.119Z,2.75
2023-02-11T16:46:49.667Z,2.70
2023-02-11T16:49:27.300Z,2.67
2023-02-11T16:52:03.275Z,2.70
2023-02-11T16:54:31.916Z,2.74
2023-02-11T16:57:00.358Z,2.67
2023-02-11T16:59:28.727Z,2.77
2023-02-11T17:01:59.763Z,2.77
2023-02-11T17:04:31.348Z,2.81
2023-02-11T17:06:59.928Z,2.81
2023-02-11T17:09:30.787Z,2.80
2023-02-11T17:12:00.859Z,2.78
2023-02-11T17:14:29.975Z,2.72
2023-02-11T17:16:58.679Z,2.75
2023-02-11T17:19:26.744Z,2.75
2023-02-11T17:21:55.032Z,2.80
2023-02-11T17:24:23.711Z,2.75
2023-02-11T17:26:52.232Z,2.72
2023-02-11T17:29:25.228Z,2.80
2023-02-11T17:31:54.397Z,2.78
2023-02-11T17:34:23.729Z,2.80
2023-02-11T17:36:52.689Z,2.85
2023-02-11T17:39:28.301Z,2.92
2023-02-11T17:41:57.481Z,2.85
2023-02-11T17:44:26.984Z,2.76
2023-02-11T17:46:55.396Z,2.82
2023-02-11T17:49:23.793Z,2.85
2023-02-11T17:51:52.073Z,2.84
2023-02-11T17:54:21.810Z,2.87
2023-02-11T17:56:51.471Z,2.79
2023-02-11T17:59:19.753Z,2.77
2023-02-11T18:01:48.369Z,2.78
2023-02-11T18:04:20.185Z,2.79
2023-02-11T18:06:56.264Z,2.84
2023-02-11T18:09:25.962Z,2.80
2023-02-11T18:11:55.753Z,2.77
2023-02-11T18:14:33.995Z,2.80
2023-02-11T18:17:02.590Z,2.86
2023-02-11T18:19:33.719Z,2.83
2023-02-11T18:22:05.000Z,2.89
2023-02-11T18:24:33.712Z,2.87
2023-02-11T18:27:02.399Z,2.88
2023-02-11T18:29:30.497Z,2.93
2023-02-11T18:31:59.128Z,2.91
2023-02-11T18:34:30.821Z,2.87
2023-02-11T18:36:59.660Z,2.87
2023-02-11T18:39:31.035Z,2.88
2023-02-11T18:42:00.440Z,2.96
2023-02-11T18:44:29.091Z,2.99
2023-02-11T18:47:05.138Z,2.96
2023-02-11T18:49:34.109Z,3.02
2023-02-11T18:52:04.804Z,3.02
2023-02-11T18:54:35.287Z,2.98
2023-02-11T18:57:06.638Z,2.99
2023-02-11T18:59:35.162Z,2.95
2023-02-11T19:02:03.311Z,2.95
2023-02-11T19:04:32.585Z,2.98
2023-02-11T19:07:04.001Z,2.96
2023-02-11T19:09:32.206Z,3.00
2023-02-11T19:12:04.355Z,3.04
2023-02-11T19:14:35.097Z,2.99
2023-02-11T19:17:10.282Z,3.06
2023-02-11T19:19:39.123Z,3.15
2023-02-11T19:22:10.592Z,3.16
2023-02-11T19:24:40.259Z,3.16
2023-02-11T19:27:08.513Z,3.19
2023-02-11T19:29:38.374Z,3.22
2023-02-11T19:32:08.687Z,3.24
2023-02-11T19:34:41.779Z,3.20
2023-02-11T19:37:13.998Z,3.23
2023-02-11T19:39:43.443Z,3.27
2023-02-11T19:42:12.532Z,3.26
2023-02-11T19:44:41.755Z,3.32
2023-02-11T19:47:11.338Z,3.32
2023-02-11T19:49:39.223Z,3.31
2023-02-11T19:52:08.782Z,3.34
2023-02-11T19:54:41.393Z,3.28
2023-02-11T19:57:12.992Z,3.33
2023-02-11T19:59:41.918Z,3.34
2023-02-11T20:02:15.052Z,3.32
2023-02-11T20:04:46.853Z,3.30
2023-02-11T20:07:16.352Z,3.33
2023-02-11T20:09:45.059Z,3.44
2023-02-11T20:12:16.205Z,3.48
2023-02-11T20:14:44.348Z,3.58
2023-02-11T20:17:13.775Z,3.71
2023-02-11T20:19:42.616Z,3.78
2023-02-11T20:22:11.204Z,3.71
2023-02-11T20:24:42.111Z,3.69
2023-02-11T20:27:11.835Z,3.74
2023-02-11T20:29:48.910Z,3.93
2023-02-11T20:32:17.699Z,4.08
2023-02-11T20:34:47.122Z,4.11
2023-02-11T20:37:20.466Z,4.12
2023-02-11T20:39:49.055Z,4.33
2023-02-11T20:42:16.979Z,4.37
2023-02-11T20:44:47.941Z,4.43
2023-02-11T20:47:17.780Z,4.50
2023-02-11T20:49:47.879Z,4.59
2023-02-11T20:52:16.799Z,4.58
2023-02-11T20:54:48.251Z,4.58
2023-02-11T20:57:16.868Z,4.60
2023-02-11T20:59:52.024Z,4.65
2023-02-11T21:02:23.587Z,4.66
2023-02-11T21:04:54.978Z,4.64
2023-02-11T21:07:23.294Z,4.71
2023-02-11T21:09:52.726Z,4.75
2023-02-11T21:12:21.101Z,4.64
2023-02-11T21:14:49.479Z,4.65
2023-02-11T21:17:17.948Z,4.71
2023-02-11T21:19:45.761Z,4.66
2023-02-11T21:22:14.530Z,4.71
2023-02-11T21:24:42.859Z,4.73
2023-02-11T21:27:13.166Z,4.64
2023-02-11T21:29:53.543Z,4.75
2023-02-11T21:32:22.581Z,4.69
2023-02-11T21:34:51.131Z,4.72
2023-02-11T21:37:19.549Z,4.76
2023-02-11T21:39:48.147Z,4.73
2023-02-11T21:42:16.972Z,4.71
2023-02-11T21:44:45.208Z,4.77
2023-02-11T21:47:12.996Z,4.71
2023-02-11T21:49:43.684Z,4.70
2023-02-11T21:52:11.521Z,4.71
2023-02-11T21:54:39.238Z,4.72
2023-02-11T21:57:07.605Z,4.73
2023-02-11T21:59:35.765Z,4.67
2023-02-11T22:02:05.610Z,4.64
2023-02-11T22:04:36.029Z,4.62
2023-02-11T22:07:06.676Z,4.62
2023-02-11T22:09:42.032Z,4.60
2023-02-11T22:12:09.625Z,4.62
2023-02-11T22:14:39.688Z,4.58
2023-02-11T22:17:08.884Z,4.56
2023-02-11T22:19:37.604Z,4.50
2023-02-11T22:22:08.644Z,4.54
2023-02-11T22:24:37.053Z,4.53
2023-02-11T22:27:04.614Z,4.54
2023-02-11T22:29:31.803Z,4.54
2023-02-11T22:31:59.255Z,4.41
2023-02-11T22:34:27.749Z,4.52
2023-02-11T22:36:55.251Z,4.48
2023-02-11T22:39:22.670Z,4.48
2023-02-11T22:41:50.186Z,4.50
2023-02-11T22:44:18.701Z,4.52
2023-02-11T22:46:46.362Z,4.53
2023-02-11T22:49:15.229Z,4.55
2023-02-11T22:51:43.064Z,4.51
2023-02-11T22:54:16.390Z,4.52
2023-02-11T22:56:44.108Z,4.51
2023-02-11T22:59:13.889Z,4.56
2023-02-11T23:01:41.709Z,4.52
2023-02-11T23:04:12.452Z,4.56
2023-02-11T23:06:40.198Z,4.56
2023-02-11T23:09:10.566Z,4.56
2023-02-11T23:11:38.534Z,4.53
2023-02-11T23:14:06.034Z,4.59
2023-02-11T23:16:39.717Z,4.55
2023-02-11T23:19:08.976Z,4.55
2023-02-11T23:21:38.417Z,4.53
2023-02-11T23:24:10.443Z,4.52
2023-02-11T23:26:40.077Z,4.51
2023-02-11T23:29:08.003Z,4.52
2023-02-11T23:31:40.078Z,4.52
2023-02-11T23:34:08.429Z,4.51
2023-02-11T23:36:36.080Z,4.52
2023-02-11T23:39:05.913Z,4.52
2023-02-11T23:41:33.139Z,4.48
2023-02-11T23:44:03.168Z,4.47
2023-02-11T23:46:30.576Z,4.46
2023-02-11T23:48:58.020Z,4.43
2023-02-11T23:51:25.422Z,4.45
2023-02-11T23:53:54.379Z,4.43
2023-02-11T23:56:24.172Z,4.43
2023-02-11T23:58:53.450Z,4.44
